sensor_id;sensor_type;location;lat;lon;timestamp;P1;durP1;ratioP1;P2;durP2;ratioP2
66145;SDS011;52948;60.040;30.320;2024-01-30T00:00:24;7.70;;;2.42;;
66145;SDS011;52948;60.040;30.320;2024-01-30T00:05:26;7.13;;;2.70;;
66145;SDS011;52948;60.040;30.320;2024-01-30T00:10:29;5.13;;;2.30;;
66145;SDS011;52948;60.040;30.320;2024-01-30T00:15:31;4.60;;;2.17;;
66145;SDS011;52948;60.040;30.320;2024-01-30T00:20:33;5.13;;;2.20;;
66145;SDS011;52948;60.040;30.320;2024-01-30T00:25:35;6.00;;;2.17;;
66145;SDS011;52948;60.040;30.320;2024-01-30T00:30:38;7.85;;;2.42;;
66145;SDS011;52948;60.040;30.320;2024-01-30T00:35:40;4.22;;;1.95;;
66145;SDS011;52948;60.040;30.320;2024-01-30T00:40:42;4.15;;;2.47;;
66145;SDS011;52948;60.040;30.320;2024-01-30T00:45:45;6.07;;;2.35;;
66145;SDS011;52948;60.040;30.320;2024-01-30T00:50:47;7.93;;;2.80;;
66145;SDS011;52948;60.040;30.320;2024-01-30T00:55:49;6.88;;;2.47;;
66145;SDS011;52948;60.040;30.320;2024-01-30T01:00:51;6.00;;;2.65;;
66145;SDS011;52948;60.040;30.320;2024-01-30T01:05:54;4.35;;;2.30;;
66145;SDS011;52948;60.040;30.320;2024-01-30T01:10:56;6.90;;;2.55;;
66145;SDS011;52948;60.040;30.320;2024-01-30T01:15:58;7.40;;;2.80;;
66145;SDS011;52948;60.040;30.320;2024-01-30T01:21:01;8.57;;;2.45;;
66145;SDS011;52948;60.040;30.320;2024-01-30T01:26:04;4.80;;;2.47;;
66145;SDS011;52948;60.040;30.320;2024-01-30T01:31:08;6.82;;;2.60;;
66145;SDS011;52948;60.040;30.320;2024-01-30T01:36:11;5.13;;;2.35;;
66145;SDS011;52948;60.040;30.320;2024-01-30T01:41:13;7.28;;;2.60;;
66145;SDS011;52948;60.040;30.320;2024-01-30T01:46:16;6.63;;;2.65;;
66145;SDS011;52948;60.040;30.320;2024-01-30T01:51:19;10.90;;;2.92;;
66145;SDS011;52948;60.040;30.320;2024-01-30T01:56:22;6.35;;;2.20;;
66145;SDS011;52948;60.040;30.320;2024-01-30T02:01:25;5.43;;;2.28;;
66145;SDS011;52948;60.040;30.320;2024-01-30T02:06:28;4.80;;;2.53;;
66145;SDS011;52948;60.040;30.320;2024-01-30T02:11:30;9.60;;;2.80;;
66145;SDS011;52948;60.040;30.320;2024-01-30T02:16:33;7.57;;;2.47;;
66145;SDS011;52948;60.040;30.320;2024-01-30T02:21:37;6.07;;;2.42;;
66145;SDS011;52948;60.040;30.320;2024-01-30T02:26:39;7.82;;;3.03;;
66145;SDS011;52948;60.040;30.320;2024-01-30T02:31:42;5.93;;;2.65;;
66145;SDS011;52948;60.040;30.320;2024-01-30T02:36:44;8.50;;;2.40;;
66145;SDS011;52948;60.040;30.320;2024-01-30T02:41:48;5.55;;;2.60;;
66145;SDS011;52948;60.040;30.320;2024-01-30T02:46:50;4.10;;;2.08;;
66145;SDS011;52948;60.040;30.320;2024-01-30T02:51:53;5.13;;;2.45;;
66145;SDS011;52948;60.040;30.320;2024-01-30T02:56:56;4.45;;;2.40;;
66145;SDS011;52948;60.040;30.320;2024-01-30T03:01:59;8.30;;;2.47;;
66145;SDS011;52948;60.040;30.320;2024-01-30T03:07:01;6.78;;;2.97;;
66145;SDS011;52948;60.040;30.320;2024-01-30T03:12:04;6.30;;;2.42;;
66145;SDS011;52948;60.040;30.320;2024-01-30T03:17:06;7.32;;;2.08;;
66145;SDS011;52948;60.040;30.320;2024-01-30T03:22:09;10.48;;;3.00;;
66145;SDS011;52948;60.040;30.320;2024-01-30T03:27:14;6.20;;;2.75;;
66145;SDS011;52948;60.040;30.320;2024-01-30T03:32:18;5.68;;;1.92;;
66145;SDS011;52948;60.040;30.320;2024-01-30T03:37:20;9.20;;;3.05;;
66145;SDS011;52948;60.040;30.320;2024-01-30T03:42:23;5.00;;;2.25;;
66145;SDS011;52948;60.040;30.320;2024-01-30T03:47:25;4.43;;;2.47;;
66145;SDS011;52948;60.040;30.320;2024-01-30T03:52:27;9.13;;;2.88;;
66145;SDS011;52948;60.040;30.320;2024-01-30T03:57:30;4.22;;;2.00;;
66145;SDS011;52948;60.040;30.320;2024-01-30T04:02:32;6.63;;;2.33;;
66145;SDS011;52948;60.040;30.320;2024-01-30T04:07:34;3.63;;;2.28;;
66145;SDS011;52948;60.040;30.320;2024-01-30T04:12:36;7.25;;;2.13;;
66145;SDS011;52948;60.040;30.320;2024-01-30T04:17:39;4.65;;;2.30;;
66145;SDS011;52948;60.040;30.320;2024-01-30T04:22:44;3.70;;;1.98;;
66145;SDS011;52948;60.040;30.320;2024-01-30T04:27:48;7.00;;;2.22;;
66145;SDS011;52948;60.040;30.320;2024-01-30T04:32:51;6.68;;;2.28;;
66145;SDS011;52948;60.040;30.320;2024-01-30T04:37:53;8.98;;;2.60;;
66145;SDS011;52948;60.040;30.320;2024-01-30T04:42:55;8.88;;;2.92;;
66145;SDS011;52948;60.040;30.320;2024-01-30T04:47:58;5.43;;;2.08;;
66145;SDS011;52948;60.040;30.320;2024-01-30T04:53:00;5.75;;;2.47;;
66145;SDS011;52948;60.040;30.320;2024-01-30T04:58:02;6.38;;;3.22;;
66145;SDS011;52948;60.040;30.320;2024-01-30T05:03:06;4.15;;;2.90;;
66145;SDS011;52948;60.040;30.320;2024-01-30T05:08:08;6.88;;;2.90;;
66145;SDS011;52948;60.040;30.320;2024-01-30T05:13:11;5.95;;;3.30;;
66145;SDS011;52948;60.040;30.320;2024-01-30T05:18:15;4.75;;;2.67;;
66145;SDS011;52948;60.040;30.320;2024-01-30T05:23:18;8.57;;;2.80;;
66145;SDS011;52948;60.040;30.320;2024-01-30T05:28:20;13.45;;;2.97;;
66145;SDS011;52948;60.040;30.320;2024-01-30T05:33:23;6.38;;;2.28;;
66145;SDS011;52948;60.040;30.320;2024-01-30T05:38:26;7.30;;;2.85;;
66145;SDS011;52948;60.040;30.320;2024-01-30T05:43:29;8.52;;;2.78;;
66145;SDS011;52948;60.040;30.320;2024-01-30T05:48:31;5.55;;;2.78;;
66145;SDS011;52948;60.040;30.320;2024-01-30T05:53:34;6.63;;;2.95;;
66145;SDS011;52948;60.040;30.320;2024-01-30T05:58:37;8.68;;;3.42;;
66145;SDS011;52948;60.040;30.320;2024-01-30T06:03:39;7.18;;;3.08;;
66145;SDS011;52948;60.040;30.320;2024-01-30T06:08:43;10.88;;;3.03;;
66145;SDS011;52948;60.040;30.320;2024-01-30T06:13:46;5.75;;;3.00;;
66145;SDS011;52948;60.040;30.320;2024-01-30T06:18:49;8.55;;;3.45;;
66145;SDS011;52948;60.040;30.320;2024-01-30T06:23:52;9.15;;;3.90;;
66145;SDS011;52948;60.040;30.320;2024-01-30T06:28:55;7.97;;;3.70;;
66145;SDS011;52948;60.040;30.320;2024-01-30T06:33:58;10.73;;;4.03;;
66145;SDS011;52948;60.040;30.320;2024-01-30T06:39:01;8.63;;;4.07;;
66145;SDS011;52948;60.040;30.320;2024-01-30T06:44:04;6.45;;;4.20;;
66145;SDS011;52948;60.040;30.320;2024-01-30T06:49:08;6.65;;;3.40;;
66145;SDS011;52948;60.040;30.320;2024-01-30T06:54:10;13.02;;;4.28;;
66145;SDS011;52948;60.040;30.320;2024-01-30T06:59:13;8.23;;;3.33;;
66145;SDS011;52948;60.040;30.320;2024-01-30T07:04:16;6.35;;;3.53;;
66145;SDS011;52948;60.040;30.320;2024-01-30T07:09:18;8.07;;;3.97;;
66145;SDS011;52948;60.040;30.320;2024-01-30T07:14:21;7.03;;;3.47;;
66145;SDS011;52948;60.040;30.320;2024-01-30T07:19:23;4.32;;;3.13;;
66145;SDS011;52948;60.040;30.320;2024-01-30T07:24:25;11.07;;;4.25;;
66145;SDS011;52948;60.040;30.320;2024-01-30T07:29:27;7.95;;;3.70;;
66145;SDS011;52948;60.040;30.320;2024-01-30T07:34:30;9.07;;;3.85;;
66145;SDS011;52948;60.040;30.320;2024-01-30T07:39:32;5.25;;;2.88;;
66145;SDS011;52948;60.040;30.320;2024-01-30T07:44:34;9.25;;;3.67;;
66145;SDS011;52948;60.040;30.320;2024-01-30T07:49:37;8.50;;;3.50;;
66145;SDS011;52948;60.040;30.320;2024-01-30T07:54:39;6.90;;;3.50;;
66145;SDS011;52948;60.040;30.320;2024-01-30T07:59:42;7.80;;;3.67;;
66145;SDS011;52948;60.040;30.320;2024-01-30T08:04:48;9.00;;;3.60;;
66145;SDS011;52948;60.040;30.320;2024-01-30T08:09:51;11.63;;;3.30;;
66145;SDS011;52948;60.040;30.320;2024-01-30T08:14:53;6.50;;;3.17;;
66145;SDS011;52948;60.040;30.320;2024-01-30T08:19:56;10.18;;;3.50;;
66145;SDS011;52948;60.040;30.320;2024-01-30T08:24:58;5.05;;;2.60;;
66145;SDS011;52948;60.040;30.320;2024-01-30T08:30:01;11.73;;;3.80;;
66145;SDS011;52948;60.040;30.320;2024-01-30T08:35:05;11.05;;;3.72;;
66145;SDS011;52948;60.040;30.320;2024-01-30T08:40:08;5.45;;;3.22;;
66145;SDS011;52948;60.040;30.320;2024-01-30T08:45:11;9.82;;;3.08;;
66145;SDS011;52948;60.040;30.320;2024-01-30T08:50:13;7.40;;;3.28;;
66145;SDS011;52948;60.040;30.320;2024-01-30T08:55:16;8.02;;;3.60;;
66145;SDS011;52948;60.040;30.320;2024-01-30T09:00:18;7.20;;;3.67;;
66145;SDS011;52948;60.040;30.320;2024-01-30T09:05:20;7.97;;;3.00;;
66145;SDS011;52948;60.040;30.320;2024-01-30T09:10:23;12.05;;;4.18;;
66145;SDS011;52948;60.040;30.320;2024-01-30T09:15:25;7.22;;;3.40;;
66145;SDS011;52948;60.040;30.320;2024-01-30T09:20:28;8.20;;;3.40;;
66145;SDS011;52948;60.040;30.320;2024-01-30T09:25:31;9.15;;;4.20;;
66145;SDS011;52948;60.040;30.320;2024-01-30T09:30:33;10.07;;;4.30;;
66145;SDS011;52948;60.040;30.320;2024-01-30T09:35:36;9.13;;;4.60;;
66145;SDS011;52948;60.040;30.320;2024-01-30T09:40:39;10.43;;;4.03;;
66145;SDS011;52948;60.040;30.320;2024-01-30T09:45:42;6.90;;;3.63;;
66145;SDS011;52948;60.040;30.320;2024-01-30T09:50:46;11.52;;;4.65;;
66145;SDS011;52948;60.040;30.320;2024-01-30T09:55:49;6.43;;;3.90;;
66145;SDS011;52948;60.040;30.320;2024-01-30T10:00:52;8.85;;;3.63;;
66145;SDS011;52948;60.040;30.320;2024-01-30T10:05:56;8.15;;;3.90;;
66145;SDS011;52948;60.040;30.320;2024-01-30T10:10:59;11.98;;;4.38;;
66145;SDS011;52948;60.040;30.320;2024-01-30T10:16:01;10.50;;;4.65;;
66145;SDS011;52948;60.040;30.320;2024-01-30T10:21:05;12.45;;;3.88;;
66145;SDS011;52948;60.040;30.320;2024-01-30T10:26:07;12.80;;;4.10;;
66145;SDS011;52948;60.040;30.320;2024-01-30T10:31:10;9.48;;;3.90;;
66145;SDS011;52948;60.040;30.320;2024-01-30T10:36:13;8.00;;;5.00;;
66145;SDS011;52948;60.040;30.320;2024-01-30T10:41:17;9.27;;;4.43;;
66145;SDS011;52948;60.040;30.320;2024-01-30T10:46:21;6.53;;;3.88;;
66145;SDS011;52948;60.040;30.320;2024-01-30T10:51:28;11.50;;;3.90;;
66145;SDS011;52948;60.040;30.320;2024-01-30T10:56:30;9.85;;;3.95;;
66145;SDS011;52948;60.040;30.320;2024-01-30T11:01:35;8.52;;;3.50;;
66145;SDS011;52948;60.040;30.320;2024-01-30T11:06:41;10.13;;;3.47;;
66145;SDS011;52948;60.040;30.320;2024-01-30T11:11:57;6.57;;;3.88;;
66145;SDS011;52948;60.040;30.320;2024-01-30T11:17:03;10.15;;;3.28;;
66145;SDS011;52948;60.040;30.320;2024-01-30T11:22:08;7.78;;;3.50;;
66145;SDS011;52948;60.040;30.320;2024-01-30T11:27:12;8.95;;;3.75;;
66145;SDS011;52948;60.040;30.320;2024-01-30T11:32:16;9.65;;;3.15;;
66145;SDS011;52948;60.040;30.320;2024-01-30T11:37:25;6.55;;;3.70;;
66145;SDS011;52948;60.040;30.320;2024-01-30T11:42:29;9.48;;;3.35;;
66145;SDS011;52948;60.040;30.320;2024-01-30T11:47:34;8.90;;;3.88;;
66145;SDS011;52948;60.040;30.320;2024-01-30T11:52:37;9.98;;;3.55;;
66145;SDS011;52948;60.040;30.320;2024-01-30T11:57:41;9.27;;;3.88;;
66145;SDS011;52948;60.040;30.320;2024-01-30T12:02:43;9.77;;;3.70;;
66145;SDS011;52948;60.040;30.320;2024-01-30T12:07:46;8.20;;;3.05;;
66145;SDS011;52948;60.040;30.320;2024-01-30T12:12:51;12.88;;;3.92;;
66145;SDS011;52948;60.040;30.320;2024-01-30T12:18:05;13.15;;;3.95;;
66145;SDS011;52948;60.040;30.320;2024-01-30T12:23:08;10.15;;;4.22;;
66145;SDS011;52948;60.040;30.320;2024-01-30T12:28:10;11.05;;;4.40;;
66145;SDS011;52948;60.040;30.320;2024-01-30T12:33:16;6.68;;;3.22;;
66145;SDS011;52948;60.040;30.320;2024-01-30T12:38:20;8.68;;;4.13;;
66145;SDS011;52948;60.040;30.320;2024-01-30T12:43:23;7.90;;;4.13;;
66145;SDS011;52948;60.040;30.320;2024-01-30T12:48:26;9.52;;;4.10;;
66145;SDS011;52948;60.040;30.320;2024-01-30T12:53:30;8.45;;;4.25;;
66145;SDS011;52948;60.040;30.320;2024-01-30T12:58:33;9.70;;;4.07;;
66145;SDS011;52948;60.040;30.320;2024-01-30T13:03:35;10.68;;;4.35;;
66145;SDS011;52948;60.040;30.320;2024-01-30T13:08:38;9.98;;;3.60;;
66145;SDS011;52948;60.040;30.320;2024-01-30T13:13:40;13.10;;;4.70;;
66145;SDS011;52948;60.040;30.320;2024-01-30T13:18:43;10.63;;;4.90;;
66145;SDS011;52948;60.040;30.320;2024-01-30T13:23:46;7.63;;;4.07;;
66145;SDS011;52948;60.040;30.320;2024-01-30T13:28:48;7.38;;;4.13;;
66145;SDS011;52948;60.040;30.320;2024-01-30T13:33:51;11.15;;;4.68;;
66145;SDS011;52948;60.040;30.320;2024-01-30T13:38:53;5.82;;;3.88;;
66145;SDS011;52948;60.040;30.320;2024-01-30T13:43:56;7.60;;;4.10;;
66145;SDS011;52948;60.040;30.320;2024-01-30T13:48:59;7.03;;;4.10;;
66145;SDS011;52948;60.040;30.320;2024-01-30T13:54:01;10.20;;;3.92;;
66145;SDS011;52948;60.040;30.320;2024-01-30T13:59:04;9.43;;;4.18;;
66145;SDS011;52948;60.040;30.320;2024-01-30T14:04:07;9.45;;;3.92;;
66145;SDS011;52948;60.040;30.320;2024-01-30T14:09:09;7.88;;;3.72;;
66145;SDS011;52948;60.040;30.320;2024-01-30T14:14:14;8.35;;;4.03;;
66145;SDS011;52948;60.040;30.320;2024-01-30T14:19:16;8.98;;;3.92;;
66145;SDS011;52948;60.040;30.320;2024-01-30T14:24:19;11.13;;;4.35;;
66145;SDS011;52948;60.040;30.320;2024-01-30T14:29:21;9.93;;;3.47;;
66145;SDS011;52948;60.040;30.320;2024-01-30T14:34:24;10.43;;;4.07;;
66145;SDS011;52948;60.040;30.320;2024-01-30T14:39:27;7.25;;;3.80;;
66145;SDS011;52948;60.040;30.320;2024-01-30T14:44:29;14.85;;;4.15;;
66145;SDS011;52948;60.040;30.320;2024-01-30T14:49:33;8.23;;;4.97;;
66145;SDS011;52948;60.040;30.320;2024-01-30T14:54:36;7.43;;;3.95;;
66145;SDS011;52948;60.040;30.320;2024-01-30T14:59:38;11.93;;;6.00;;
66145;SDS011;52948;60.040;30.320;2024-01-30T15:04:41;11.25;;;4.85;;
66145;SDS011;52948;60.040;30.320;2024-01-30T15:09:43;9.85;;;5.18;;
66145;SDS011;52948;60.040;30.320;2024-01-30T15:14:46;8.70;;;4.30;;
66145;SDS011;52948;60.040;30.320;2024-01-30T15:19:53;11.88;;;4.43;;
66145;SDS011;52948;60.040;30.320;2024-01-30T15:24:55;10.85;;;4.72;;
66145;SDS011;52948;60.040;30.320;2024-01-30T15:29:58;13.68;;;4.97;;
66145;SDS011;52948;60.040;30.320;2024-01-30T15:35:01;10.95;;;4.72;;
66145;SDS011;52948;60.040;30.320;2024-01-30T15:40:06;10.07;;;4.38;;
66145;SDS011;52948;60.040;30.320;2024-01-30T15:45:08;8.98;;;4.40;;
66145;SDS011;52948;60.040;30.320;2024-01-30T15:50:11;8.18;;;4.30;;
66145;SDS011;52948;60.040;30.320;2024-01-30T15:55:14;8.30;;;3.85;;
66145;SDS011;52948;60.040;30.320;2024-01-30T16:00:17;9.18;;;4.38;;
66145;SDS011;52948;60.040;30.320;2024-01-30T16:05:19;8.82;;;4.28;;
66145;SDS011;52948;60.040;30.320;2024-01-30T16:10:22;5.95;;;3.53;;
66145;SDS011;52948;60.040;30.320;2024-01-30T16:15:26;9.88;;;4.82;;
66145;SDS011;52948;60.040;30.320;2024-01-30T16:20:48;7.82;;;5.13;;
66145;SDS011;52948;60.040;30.320;2024-01-30T16:26:35;7.22;;;3.88;;
66145;SDS011;52948;60.040;30.320;2024-01-30T16:32:20;7.75;;;4.65;;
66145;SDS011;52948;60.040;30.320;2024-01-30T16:38:04;12.52;;;6.05;;
66145;SDS011;52948;60.040;30.320;2024-01-30T16:43:47;9.77;;;4.63;;
66145;SDS011;52948;60.040;30.320;2024-01-30T16:49:29;7.13;;;4.10;;
66145;SDS011;52948;60.040;30.320;2024-01-30T16:55:12;8.40;;;3.92;;
66145;SDS011;52948;60.040;30.320;2024-01-30T17:00:15;8.65;;;4.03;;
66145;SDS011;52948;60.040;30.320;2024-01-30T17:05:19;13.93;;;4.80;;
66145;SDS011;52948;60.040;30.320;2024-01-30T17:10:21;12.32;;;4.82;;
66145;SDS011;52948;60.040;30.320;2024-01-30T17:15:23;8.98;;;4.60;;
66145;SDS011;52948;60.040;30.320;2024-01-30T17:20:25;12.80;;;5.18;;
66145;SDS011;52948;60.040;30.320;2024-01-30T17:25:28;12.68;;;5.05;;
66145;SDS011;52948;60.040;30.320;2024-01-30T17:30:30;9.40;;;5.28;;
66145;SDS011;52948;60.040;30.320;2024-01-30T17:35:32;11.82;;;5.70;;
66145;SDS011;52948;60.040;30.320;2024-01-30T17:40:35;10.23;;;4.93;;
66145;SDS011;52948;60.040;30.320;2024-01-30T17:45:37;13.25;;;5.60;;
66145;SDS011;52948;60.040;30.320;2024-01-30T17:50:40;13.75;;;5.40;;
66145;SDS011;52948;60.040;30.320;2024-01-30T17:55:42;10.10;;;4.75;;
66145;SDS011;52948;60.040;30.320;2024-01-30T18:00:44;11.77;;;6.03;;
66145;SDS011;52948;60.040;30.320;2024-01-30T18:05:48;11.52;;;5.60;;
66145;SDS011;52948;60.040;30.320;2024-01-30T18:10:51;13.35;;;4.95;;
66145;SDS011;52948;60.040;30.320;2024-01-30T18:15:53;15.43;;;5.53;;
66145;SDS011;52948;60.040;30.320;2024-01-30T18:20:55;14.80;;;7.15;;
66145;SDS011;52948;60.040;30.320;2024-01-30T18:25:58;12.60;;;5.78;;
66145;SDS011;52948;60.040;30.320;2024-01-30T18:31:03;14.05;;;6.30;;
66145;SDS011;52948;60.040;30.320;2024-01-30T18:36:05;12.20;;;6.45;;
66145;SDS011;52948;60.040;30.320;2024-01-30T18:41:08;16.40;;;7.85;;
66145;SDS011;52948;60.040;30.320;2024-01-30T18:46:11;15.20;;;7.05;;
66145;SDS011;52948;60.040;30.320;2024-01-30T18:51:14;11.93;;;6.95;;
66145;SDS011;52948;60.040;30.320;2024-01-30T18:56:19;12.48;;;6.75;;
66145;SDS011;52948;60.040;30.320;2024-01-30T19:01:22;12.93;;;6.30;;
66145;SDS011;52948;60.040;30.320;2024-01-30T19:06:24;9.63;;;5.50;;
66145;SDS011;52948;60.040;30.320;2024-01-30T19:11:27;11.88;;;5.75;;
66145;SDS011;52948;60.040;30.320;2024-01-30T19:16:29;12.75;;;6.45;;
66145;SDS011;52948;60.040;30.320;2024-01-30T19:21:32;14.75;;;6.35;;
66145;SDS011;52948;60.040;30.320;2024-01-30T19:26:34;15.48;;;6.47;;
66145;SDS011;52948;60.040;30.320;2024-01-30T19:31:37;11.30;;;5.90;;
66145;SDS011;52948;60.040;30.320;2024-01-30T19:36:39;13.40;;;6.47;;
66145;SDS011;52948;60.040;30.320;2024-01-30T19:41:42;15.00;;;6.78;;
66145;SDS011;52948;60.040;30.320;2024-01-30T19:46:47;15.70;;;7.15;;
66145;SDS011;52948;60.040;30.320;2024-01-30T19:51:49;14.30;;;6.32;;
66145;SDS011;52948;60.040;30.320;2024-01-30T19:56:51;12.13;;;6.22;;
66145;SDS011;52948;60.040;30.320;2024-01-30T20:01:54;16.05;;;7.78;;
66145;SDS011;52948;60.040;30.320;2024-01-30T20:06:56;11.05;;;4.72;;
66145;SDS011;52948;60.040;30.320;2024-01-30T20:11:58;11.85;;;6.32;;
66145;SDS011;52948;60.040;30.320;2024-01-30T20:17:01;10.90;;;5.93;;
66145;SDS011;52948;60.040;30.320;2024-01-30T20:22:03;15.93;;;6.45;;
66145;SDS011;52948;60.040;30.320;2024-01-30T20:27:05;9.63;;;5.45;;
66145;SDS011;52948;60.040;30.320;2024-01-30T20:32:08;14.30;;;6.78;;
66145;SDS011;52948;60.040;30.320;2024-01-30T20:37:10;14.98;;;7.32;;
66145;SDS011;52948;60.040;30.320;2024-01-30T20:42:13;18.33;;;7.63;;
66145;SDS011;52948;60.040;30.320;2024-01-30T20:47:15;15.23;;;7.38;;
66145;SDS011;52948;60.040;30.320;2024-01-30T20:52:17;18.52;;;8.25;;
66145;SDS011;52948;60.040;30.320;2024-01-30T20:57:20;16.75;;;7.22;;
66145;SDS011;52948;60.040;30.320;2024-01-30T21:02:22;20.55;;;9.77;;
66145;SDS011;52948;60.040;30.320;2024-01-30T21:07:24;17.10;;;8.15;;
66145;SDS011;52948;60.040;30.320;2024-01-30T21:12:27;13.23;;;7.85;;
66145;SDS011;52948;60.040;30.320;2024-01-30T21:17:29;17.95;;;8.70;;
66145;SDS011;52948;60.040;30.320;2024-01-30T21:22:32;22.42;;;10.13;;
66145;SDS011;52948;60.040;30.320;2024-01-30T21:27:34;19.38;;;10.30;;
66145;SDS011;52948;60.040;30.320;2024-01-30T21:32:39;21.60;;;11.05;;
66145;SDS011;52948;60.040;30.320;2024-01-30T21:37:41;22.92;;;9.95;;
66145;SDS011;52948;60.040;30.320;2024-01-30T21:42:44;20.77;;;10.02;;
66145;SDS011;52948;60.040;30.320;2024-01-30T21:47:47;20.70;;;9.25;;
66145;SDS011;52948;60.040;30.320;2024-01-30T21:52:49;21.00;;;9.07;;
66145;SDS011;52948;60.040;30.320;2024-01-30T21:57:53;20.40;;;9.63;;
66145;SDS011;52948;60.040;30.320;2024-01-30T22:02:56;23.40;;;10.60;;
66145;SDS011;52948;60.040;30.320;2024-01-30T22:07:59;29.30;;;10.40;;
66145;SDS011;52948;60.040;30.320;2024-01-30T22:13:01;17.67;;;9.55;;
66145;SDS011;52948;60.040;30.320;2024-01-30T22:18:04;20.02;;;9.88;;
66145;SDS011;52948;60.040;30.320;2024-01-30T22:23:06;24.80;;;10.95;;
66145;SDS011;52948;60.040;30.320;2024-01-30T22:28:09;20.83;;;9.68;;
66145;SDS011;52948;60.040;30.320;2024-01-30T22:33:11;14.38;;;9.25;;
66145;SDS011;52948;60.040;30.320;2024-01-30T22:38:13;20.50;;;9.60;;
66145;SDS011;52948;60.040;30.320;2024-01-30T22:43:15;16.30;;;9.40;;
66145;SDS011;52948;60.040;30.320;2024-01-30T22:48:18;21.60;;;9.70;;
66145;SDS011;52948;60.040;30.320;2024-01-30T22:53:20;22.15;;;9.80;;
66145;SDS011;52948;60.040;30.320;2024-01-30T22:58:22;18.90;;;9.55;;
66145;SDS011;52948;60.040;30.320;2024-01-30T23:03:24;17.50;;;8.40;;
66145;SDS011;52948;60.040;30.320;2024-01-30T23:08:27;21.55;;;8.98;;
66145;SDS011;52948;60.040;30.320;2024-01-30T23:13:29;18.45;;;8.60;;
66145;SDS011;52948;60.040;30.320;2024-01-30T23:18:31;19.10;;;8.10;;
66145;SDS011;52948;60.040;30.320;2024-01-30T23:23:34;15.30;;;7.55;;
66145;SDS011;52948;60.040;30.320;2024-01-30T23:28:37;11.43;;;5.88;;
66145;SDS011;52948;60.040;30.320;2024-01-30T23:33:39;13.25;;;5.93;;
66145;SDS011;52948;60.040;30.320;2024-01-30T23:38:41;12.75;;;6.38;;
66145;SDS011;52948;60.040;30.320;2024-01-30T23:43:44;15.57;;;7.07;;
66145;SDS011;52948;60.040;30.320;2024-01-30T23:48:46;15.38;;;5.40;;
66145;SDS011;52948;60.040;30.320;2024-01-30T23:53:49;12.13;;;6.25;;
66145;SDS011;52948;60.040;30.320;2024-01-30T23:58:51;15.35;;;5.72;;
